Terminal Aerodrome Forecast
Issued by NWS

Home | Current Version | Previous Version | Graphics & Text | Print | Product List | Glossary On
Versions: 1 2 3 4 5 6 7 8 9 10 11 12 13 14 15 16 17 18 19 20 21 22 23
000
FTUS43 KBIS 250347 AAA
TAFJMS
TAF AMD
KJMS 250347Z 2504/2524 32004KT P6SM FEW250
     FM250900 26007KT P6SM SCT070
     FM251400 25007KT P6SM BKN100
     FM251700 28008KT P6SM BKN060
     FM251900 28009KT P6SM BKN025=

USA.gov is the U.S. government's official web portal to all federal, state and local government web resources and services.